sensor_id;sensor_type;location;lat;lon;timestamp;P1;durP1;ratioP1;P2;durP2;ratioP2
7977;SDS011;4034;48.004;10.902;2023-02-28T00:00:02;3.80;;;3.40;;
7977;SDS011;4034;48.004;10.902;2023-02-28T00:02:34;6.67;;;4.47;;
7977;SDS011;4034;48.004;10.902;2023-02-28T00:05:00;4.50;;;4.10;;
7977;SDS011;4034;48.004;10.902;2023-02-28T00:07:28;4.13;;;3.77;;
7977;SDS011;4034;48.004;10.902;2023-02-28T00:09:54;3.70;;;3.40;;
7977;SDS011;4034;48.004;10.902;2023-02-28T00:12:20;4.50;;;4.20;;
7977;SDS011;4034;48.004;10.902;2023-02-28T00:14:46;2.43;;;2.33;;
7977;SDS011;4034;48.004;10.902;2023-02-28T00:17:12;4.60;;;3.77;;
7977;SDS011;4034;48.004;10.902;2023-02-28T00:19:38;3.70;;;3.47;;
7977;SDS011;4034;48.004;10.902;2023-02-28T00:22:04;4.93;;;4.03;;
7977;SDS011;4034;48.004;10.902;2023-02-28T00:24:30;4.43;;;4.00;;
7977;SDS011;4034;48.004;10.902;2023-02-28T00:26:56;3.43;;;3.23;;
7977;SDS011;4034;48.004;10.902;2023-02-28T00:29:22;3.13;;;3.03;;
7977;SDS011;4034;48.004;10.902;2023-02-28T00:31:48;3.40;;;3.20;;
7977;SDS011;4034;48.004;10.902;2023-02-28T00:34:14;3.53;;;3.23;;
7977;SDS011;4034;48.004;10.902;2023-02-28T00:36:41;3.70;;;3.40;;
7977;SDS011;4034;48.004;10.902;2023-02-28T00:39:10;3.93;;;3.63;;
7977;SDS011;4034;48.004;10.902;2023-02-28T00:41:37;4.40;;;4.00;;
7977;SDS011;4034;48.004;10.902;2023-02-28T00:44:03;4.13;;;3.83;;
7977;SDS011;4034;48.004;10.902;2023-02-28T00:46:29;3.37;;;3.17;;
7977;SDS011;4034;48.004;10.902;2023-02-28T00:48:55;3.43;;;3.23;;
7977;SDS011;4034;48.004;10.902;2023-02-28T00:51:21;2.80;;;2.70;;
7977;SDS011;4034;48.004;10.902;2023-02-28T00:53:47;3.67;;;3.43;;
7977;SDS011;4034;48.004;10.902;2023-02-28T00:56:13;4.47;;;4.17;;
7977;SDS011;4034;48.004;10.902;2023-02-28T00:58:39;4.97;;;3.60;;
7977;SDS011;4034;48.004;10.902;2023-02-28T01:01:05;3.57;;;3.27;;
7977;SDS011;4034;48.004;10.902;2023-02-28T01:03:31;2.97;;;2.73;;
7977;SDS011;4034;48.004;10.902;2023-02-28T01:05:57;4.07;;;3.47;;
7977;SDS011;4034;48.004;10.902;2023-02-28T01:08:23;4.20;;;3.80;;
7977;SDS011;4034;48.004;10.902;2023-02-28T01:10:50;4.00;;;3.73;;
7977;SDS011;4034;48.004;10.902;2023-02-28T01:13:17;2.73;;;2.53;;
7977;SDS011;4034;48.004;10.902;2023-02-28T01:15:45;3.33;;;3.13;;
7977;SDS011;4034;48.004;10.902;2023-02-28T01:18:11;3.67;;;3.37;;
7977;SDS011;4034;48.004;10.902;2023-02-28T01:20:37;3.10;;;2.97;;
7977;SDS011;4034;48.004;10.902;2023-02-28T01:23:03;5.63;;;3.23;;
7977;SDS011;4034;48.004;10.902;2023-02-28T01:25:29;4.60;;;3.83;;
7977;SDS011;4034;48.004;10.902;2023-02-28T01:27:55;4.00;;;3.80;;
7977;SDS011;4034;48.004;10.902;2023-02-28T01:30:21;3.43;;;3.23;;
7977;SDS011;4034;48.004;10.902;2023-02-28T01:32:47;4.57;;;4.17;;
7977;SDS011;4034;48.004;10.902;2023-02-28T01:35:15;3.33;;;3.13;;
7977;SDS011;4034;48.004;10.902;2023-02-28T01:37:41;4.17;;;3.90;;
7977;SDS011;4034;48.004;10.902;2023-02-28T01:40:07;3.80;;;3.50;;
7977;SDS011;4034;48.004;10.902;2023-02-28T01:42:33;4.57;;;3.90;;
7977;SDS011;4034;48.004;10.902;2023-02-28T01:47:40;2.57;;;2.37;;
7977;SDS011;4034;48.004;10.902;2023-02-28T01:50:09;3.80;;;3.50;;
7977;SDS011;4034;48.004;10.902;2023-02-28T01:52:37;3.87;;;3.67;;
7977;SDS011;4034;48.004;10.902;2023-02-28T01:55:04;3.87;;;3.57;;
7977;SDS011;4034;48.004;10.902;2023-02-28T01:57:34;4.03;;;3.73;;
7977;SDS011;4034;48.004;10.902;2023-02-28T02:00:22;4.17;;;3.87;;
7977;SDS011;4034;48.004;10.902;2023-02-28T02:02:50;4.03;;;3.67;;
7977;SDS011;4034;48.004;10.902;2023-02-28T02:05:18;3.97;;;3.67;;
7977;SDS011;4034;48.004;10.902;2023-02-28T02:07:45;4.93;;;4.53;;
7977;SDS011;4034;48.004;10.902;2023-02-28T02:15:24;4.67;;;4.33;;
7977;SDS011;4034;48.004;10.902;2023-02-28T02:17:52;4.73;;;4.33;;
7977;SDS011;4034;48.004;10.902;2023-02-28T02:26:09;3.33;;;3.03;;
7977;SDS011;4034;48.004;10.902;2023-02-28T02:28:46;5.90;;;3.73;;
7977;SDS011;4034;48.004;10.902;2023-02-28T02:42:22;3.57;;;2.70;;
7977;SDS011;4034;48.004;10.902;2023-02-28T02:44:50;4.50;;;4.20;;
7977;SDS011;4034;48.004;10.902;2023-02-28T02:47:19;5.33;;;4.93;;
7977;SDS011;4034;48.004;10.902;2023-02-28T02:49:50;5.83;;;4.60;;
7977;SDS011;4034;48.004;10.902;2023-02-28T02:52:18;5.43;;;4.33;;
7977;SDS011;4034;48.004;10.902;2023-02-28T02:54:46;5.07;;;4.63;;
7977;SDS011;4034;48.004;10.902;2023-02-28T02:57:14;3.40;;;3.13;;
7977;SDS011;4034;48.004;10.902;2023-02-28T02:59:41;5.60;;;5.27;;
7977;SDS011;4034;48.004;10.902;2023-02-28T03:02:09;16.67;;;7.97;;
7977;SDS011;4034;48.004;10.902;2023-02-28T03:04:39;9.87;;;7.30;;
7977;SDS011;4034;48.004;10.902;2023-02-28T03:07:06;6.70;;;6.00;;
7977;SDS011;4034;48.004;10.902;2023-02-28T03:09:33;4.37;;;3.87;;
7977;SDS011;4034;48.004;10.902;2023-02-28T03:12:00;4.93;;;4.53;;
7977;SDS011;4034;48.004;10.902;2023-02-28T03:17:16;7.33;;;5.00;;
7977;SDS011;4034;48.004;10.902;2023-02-28T03:24:57;8.27;;;4.73;;
7977;SDS011;4034;48.004;10.902;2023-02-28T03:27:31;6.67;;;5.17;;
7977;SDS011;4034;48.004;10.902;2023-02-28T03:30:01;5.83;;;5.30;;
7977;SDS011;4034;48.004;10.902;2023-02-28T03:32:31;5.90;;;5.23;;
7977;SDS011;4034;48.004;10.902;2023-02-28T03:35:04;4.87;;;4.53;;
7977;SDS011;4034;48.004;10.902;2023-02-28T03:37:32;6.97;;;5.13;;
7977;SDS011;4034;48.004;10.902;2023-02-28T03:40:11;5.80;;;5.10;;
7977;SDS011;4034;48.004;10.902;2023-02-28T03:42:38;4.77;;;4.37;;
7977;SDS011;4034;48.004;10.902;2023-02-28T03:45:05;5.67;;;4.70;;
7977;SDS011;4034;48.004;10.902;2023-02-28T03:47:54;5.43;;;5.00;;
7977;SDS011;4034;48.004;10.902;2023-02-28T03:50:41;6.10;;;4.67;;
7977;SDS011;4034;48.004;10.902;2023-02-28T03:53:16;4.87;;;4.03;;
7977;SDS011;4034;48.004;10.902;2023-02-28T03:55:45;4.50;;;4.17;;
7977;SDS011;4034;48.004;10.902;2023-02-28T03:58:20;6.80;;;4.03;;
7977;SDS011;4034;48.004;10.902;2023-02-28T04:00:49;5.20;;;4.70;;
7977;SDS011;4034;48.004;10.902;2023-02-28T04:03:16;4.23;;;3.93;;
7977;SDS011;4034;48.004;10.902;2023-02-28T04:05:47;7.60;;;5.20;;
7977;SDS011;4034;48.004;10.902;2023-02-28T04:08:14;4.90;;;4.50;;
7977;SDS011;4034;48.004;10.902;2023-02-28T04:10:40;7.60;;;4.60;;
7977;SDS011;4034;48.004;10.902;2023-02-28T04:13:08;5.37;;;4.83;;
7977;SDS011;4034;48.004;10.902;2023-02-28T04:15:34;5.67;;;4.83;;
7977;SDS011;4034;48.004;10.902;2023-02-28T04:18:01;7.37;;;5.53;;
7977;SDS011;4034;48.004;10.902;2023-02-28T04:20:27;5.50;;;5.00;;
7977;SDS011;4034;48.004;10.902;2023-02-28T04:22:53;3.53;;;3.33;;
7977;SDS011;4034;48.004;10.902;2023-02-28T04:25:19;5.00;;;4.70;;
7977;SDS011;4034;48.004;10.902;2023-02-28T04:27:45;5.60;;;5.13;;
7977;SDS011;4034;48.004;10.902;2023-02-28T04:30:11;6.53;;;5.93;;
7977;SDS011;4034;48.004;10.902;2023-02-28T04:32:37;5.00;;;4.60;;
7977;SDS011;4034;48.004;10.902;2023-02-28T04:35:04;9.47;;;6.37;;
7977;SDS011;4034;48.004;10.902;2023-02-28T04:37:30;6.40;;;5.87;;
7977;SDS011;4034;48.004;10.902;2023-02-28T04:40:00;8.43;;;6.70;;
7977;SDS011;4034;48.004;10.902;2023-02-28T04:42:26;7.33;;;6.63;;
7977;SDS011;4034;48.004;10.902;2023-02-28T04:44:52;6.13;;;5.57;;
7977;SDS011;4034;48.004;10.902;2023-02-28T04:47:18;6.70;;;6.07;;
7977;SDS011;4034;48.004;10.902;2023-02-28T04:49:44;12.40;;;6.87;;
7977;SDS011;4034;48.004;10.902;2023-02-28T04:52:10;8.73;;;7.10;;
7977;SDS011;4034;48.004;10.902;2023-02-28T04:54:36;5.67;;;5.07;;
7977;SDS011;4034;48.004;10.902;2023-02-28T04:57:03;6.47;;;5.83;;
7977;SDS011;4034;48.004;10.902;2023-02-28T04:59:29;7.43;;;5.80;;
7977;SDS011;4034;48.004;10.902;2023-02-28T05:01:55;5.83;;;5.33;;
7977;SDS011;4034;48.004;10.902;2023-02-28T05:04:21;8.10;;;6.20;;
7977;SDS011;4034;48.004;10.902;2023-02-28T05:06:47;5.93;;;5.33;;
7977;SDS011;4034;48.004;10.902;2023-02-28T05:09:13;6.83;;;5.60;;
7977;SDS011;4034;48.004;10.902;2023-02-28T05:11:39;7.77;;;5.80;;
7977;SDS011;4034;48.004;10.902;2023-02-28T05:14:07;11.63;;;7.13;;
7977;SDS011;4034;48.004;10.902;2023-02-28T05:16:34;7.17;;;6.43;;
7977;SDS011;4034;48.004;10.902;2023-02-28T05:19:00;9.57;;;7.90;;
7977;SDS011;4034;48.004;10.902;2023-02-28T05:21:30;5.60;;;4.83;;
7977;SDS011;4034;48.004;10.902;2023-02-28T05:23:57;11.10;;;7.37;;
7977;SDS011;4034;48.004;10.902;2023-02-28T05:26:24;9.20;;;7.40;;
7977;SDS011;4034;48.004;10.902;2023-02-28T05:28:50;8.17;;;7.37;;
7977;SDS011;4034;48.004;10.902;2023-02-28T05:31:16;13.10;;;9.07;;
7977;SDS011;4034;48.004;10.902;2023-02-28T05:33:42;14.63;;;9.20;;
7977;SDS011;4034;48.004;10.902;2023-02-28T05:36:08;12.53;;;8.13;;
7977;SDS011;4034;48.004;10.902;2023-02-28T05:38:35;12.83;;;8.67;;
7977;SDS011;4034;48.004;10.902;2023-02-28T05:41:04;7.47;;;6.80;;
7977;SDS011;4034;48.004;10.902;2023-02-28T05:43:30;12.23;;;9.73;;
7977;SDS011;4034;48.004;10.902;2023-02-28T05:45:56;13.90;;;10.33;;
7977;SDS011;4034;48.004;10.902;2023-02-28T05:48:22;9.13;;;8.23;;
7977;SDS011;4034;48.004;10.902;2023-02-28T05:50:48;11.70;;;9.07;;
7977;SDS011;4034;48.004;10.902;2023-02-28T05:53:14;16.17;;;9.73;;
7977;SDS011;4034;48.004;10.902;2023-02-28T05:55:40;13.70;;;11.00;;
7977;SDS011;4034;48.004;10.902;2023-02-28T05:58:06;13.13;;;10.13;;
7977;SDS011;4034;48.004;10.902;2023-02-28T06:00:32;12.57;;;10.80;;
7977;SDS011;4034;48.004;10.902;2023-02-28T06:02:58;11.47;;;10.10;;
7977;SDS011;4034;48.004;10.902;2023-02-28T06:05:26;10.60;;;9.50;;
7977;SDS011;4034;48.004;10.902;2023-02-28T06:07:52;13.07;;;10.23;;
7977;SDS011;4034;48.004;10.902;2023-02-28T06:10:18;14.80;;;10.67;;
7977;SDS011;4034;48.004;10.902;2023-02-28T06:12:44;12.13;;;10.80;;
7977;SDS011;4034;48.004;10.902;2023-02-28T06:15:14;10.13;;;8.07;;
7977;SDS011;4034;48.004;10.902;2023-02-28T06:17:41;14.10;;;9.67;;
7977;SDS011;4034;48.004;10.902;2023-02-28T06:20:07;18.13;;;13.93;;
7977;SDS011;4034;48.004;10.902;2023-02-28T06:22:34;17.73;;;12.63;;
7977;SDS011;4034;48.004;10.902;2023-02-28T06:25:00;12.63;;;8.27;;
7977;SDS011;4034;48.004;10.902;2023-02-28T06:27:26;15.83;;;12.03;;
7977;SDS011;4034;48.004;10.902;2023-02-28T06:29:54;19.47;;;12.53;;
7977;SDS011;4034;48.004;10.902;2023-02-28T06:32:23;9.97;;;8.13;;
7977;SDS011;4034;48.004;10.902;2023-02-28T06:34:57;14.57;;;10.30;;
7977;SDS011;4034;48.004;10.902;2023-02-28T06:37:23;15.30;;;10.97;;
7977;SDS011;4034;48.004;10.902;2023-02-28T06:39:52;17.63;;;11.93;;
7977;SDS011;4034;48.004;10.902;2023-02-28T06:42:18;18.47;;;12.43;;
7977;SDS011;4034;48.004;10.902;2023-02-28T06:44:44;16.53;;;12.10;;
7977;SDS011;4034;48.004;10.902;2023-02-28T06:47:10;14.23;;;11.87;;
7977;SDS011;4034;48.004;10.902;2023-02-28T06:49:36;12.83;;;11.03;;
7977;SDS011;4034;48.004;10.902;2023-02-28T06:52:04;16.70;;;12.53;;
7977;SDS011;4034;48.004;10.902;2023-02-28T06:54:30;15.63;;;11.83;;
7977;SDS011;4034;48.004;10.902;2023-02-28T06:56:57;15.20;;;12.00;;
7977;SDS011;4034;48.004;10.902;2023-02-28T06:59:23;16.13;;;11.47;;
7977;SDS011;4034;48.004;10.902;2023-02-28T07:01:59;14.20;;;11.00;;
7977;SDS011;4034;48.004;10.902;2023-02-28T07:04:28;18.70;;;12.73;;
7977;SDS011;4034;48.004;10.902;2023-02-28T07:06:54;14.97;;;10.93;;
7977;SDS011;4034;48.004;10.902;2023-02-28T07:09:22;16.77;;;12.47;;
7977;SDS011;4034;48.004;10.902;2023-02-28T07:11:48;18.03;;;12.37;;
7977;SDS011;4034;48.004;10.902;2023-02-28T07:14:14;7.27;;;6.63;;
7977;SDS011;4034;48.004;10.902;2023-02-28T07:16:40;13.17;;;10.87;;
7977;SDS011;4034;48.004;10.902;2023-02-28T07:19:06;17.97;;;12.40;;
7977;SDS011;4034;48.004;10.902;2023-02-28T07:21:32;12.27;;;11.00;;
7977;SDS011;4034;48.004;10.902;2023-02-28T07:23:58;11.23;;;9.23;;
7977;SDS011;4034;48.004;10.902;2023-02-28T07:26:24;9.60;;;8.03;;
7977;SDS011;4034;48.004;10.902;2023-02-28T07:28:50;14.37;;;10.77;;
7977;SDS011;4034;48.004;10.902;2023-02-28T07:31:16;13.47;;;11.07;;
7977;SDS011;4034;48.004;10.902;2023-02-28T07:33:43;16.27;;;12.47;;
7977;SDS011;4034;48.004;10.902;2023-02-28T07:36:10;16.33;;;12.80;;
7977;SDS011;4034;48.004;10.902;2023-02-28T07:38:40;15.63;;;10.60;;
7977;SDS011;4034;48.004;10.902;2023-02-28T07:41:06;11.67;;;8.70;;
7977;SDS011;4034;48.004;10.902;2023-02-28T07:43:33;15.20;;;11.23;;
7977;SDS011;4034;48.004;10.902;2023-02-28T07:46:09;13.60;;;11.17;;
7977;SDS011;4034;48.004;10.902;2023-02-28T07:48:35;15.40;;;11.97;;
7977;SDS011;4034;48.004;10.902;2023-02-28T07:51:02;14.93;;;12.20;;
7977;SDS011;4034;48.004;10.902;2023-02-28T07:53:28;15.37;;;11.60;;
7977;SDS011;4034;48.004;10.902;2023-02-28T07:55:57;13.23;;;9.67;;
7977;SDS011;4034;48.004;10.902;2023-02-28T07:58:24;14.00;;;10.90;;
7977;SDS011;4034;48.004;10.902;2023-02-28T08:00:50;13.87;;;11.27;;
7977;SDS011;4034;48.004;10.902;2023-02-28T08:03:20;12.63;;;9.07;;
7977;SDS011;4034;48.004;10.902;2023-02-28T08:05:46;15.67;;;11.77;;
7977;SDS011;4034;48.004;10.902;2023-02-28T08:08:13;14.20;;;11.40;;
7977;SDS011;4034;48.004;10.902;2023-02-28T08:10:39;13.87;;;12.27;;
7977;SDS011;4034;48.004;10.902;2023-02-28T08:13:05;15.03;;;12.90;;
7977;SDS011;4034;48.004;10.902;2023-02-28T08:15:31;13.97;;;12.60;;
7977;SDS011;4034;48.004;10.902;2023-02-28T08:17:57;15.60;;;12.47;;
7977;SDS011;4034;48.004;10.902;2023-02-28T08:20:24;14.27;;;11.20;;
7977;SDS011;4034;48.004;10.902;2023-02-28T08:22:50;16.77;;;12.33;;
7977;SDS011;4034;48.004;10.902;2023-02-28T08:25:16;13.83;;;12.07;;
7977;SDS011;4034;48.004;10.902;2023-02-28T08:27:42;14.37;;;11.07;;
7977;SDS011;4034;48.004;10.902;2023-02-28T08:30:12;16.47;;;12.43;;
7977;SDS011;4034;48.004;10.902;2023-02-28T08:32:38;14.60;;;11.30;;
7977;SDS011;4034;48.004;10.902;2023-02-28T08:35:04;14.03;;;9.47;;
7977;SDS011;4034;48.004;10.902;2023-02-28T08:37:30;10.23;;;8.80;;
7977;SDS011;4034;48.004;10.902;2023-02-28T08:39:56;17.70;;;12.13;;
7977;SDS011;4034;48.004;10.902;2023-02-28T08:42:23;13.53;;;11.33;;
7977;SDS011;4034;48.004;10.902;2023-02-28T08:44:49;13.37;;;11.57;;
7977;SDS011;4034;48.004;10.902;2023-02-28T08:47:15;13.87;;;10.00;;
7977;SDS011;4034;48.004;10.902;2023-02-28T08:49:41;16.47;;;11.23;;
7977;SDS011;4034;48.004;10.902;2023-02-28T08:52:07;13.70;;;11.87;;
7977;SDS011;4034;48.004;10.902;2023-02-28T08:54:33;19.33;;;13.07;;
7977;SDS011;4034;48.004;10.902;2023-02-28T08:56:59;15.43;;;10.83;;
7977;SDS011;4034;48.004;10.902;2023-02-28T08:59:25;13.97;;;11.63;;
7977;SDS011;4034;48.004;10.902;2023-02-28T09:01:51;17.13;;;12.27;;
7977;SDS011;4034;48.004;10.902;2023-02-28T09:04:20;15.20;;;11.20;;
7977;SDS011;4034;48.004;10.902;2023-02-28T09:06:47;11.37;;;9.90;;
7977;SDS011;4034;48.004;10.902;2023-02-28T09:09:14;15.67;;;11.60;;
7977;SDS011;4034;48.004;10.902;2023-02-28T09:11:40;15.53;;;12.37;;
7977;SDS011;4034;48.004;10.902;2023-02-28T09:14:06;13.30;;;12.00;;
7977;SDS011;4034;48.004;10.902;2023-02-28T09:16:32;14.73;;;11.83;;
7977;SDS011;4034;48.004;10.902;2023-02-28T09:18:58;13.70;;;11.37;;
7977;SDS011;4034;48.004;10.902;2023-02-28T09:21:25;14.87;;;10.63;;
7977;SDS011;4034;48.004;10.902;2023-02-28T09:23:51;15.73;;;11.97;;
7977;SDS011;4034;48.004;10.902;2023-02-28T09:26:22;15.50;;;12.17;;
7977;SDS011;4034;48.004;10.902;2023-02-28T09:28:48;13.37;;;11.03;;
7977;SDS011;4034;48.004;10.902;2023-02-28T09:31:15;12.90;;;10.03;;
7977;SDS011;4034;48.004;10.902;2023-02-28T09:33:41;13.80;;;11.33;;
7977;SDS011;4034;48.004;10.902;2023-02-28T09:36:08;13.93;;;11.93;;
7977;SDS011;4034;48.004;10.902;2023-02-28T09:38:34;16.93;;;12.03;;
7977;SDS011;4034;48.004;10.902;2023-02-28T09:41:08;12.63;;;10.47;;
7977;SDS011;4034;48.004;10.902;2023-02-28T09:43:37;14.27;;;11.27;;
7977;SDS011;4034;48.004;10.902;2023-02-28T09:48:33;11.60;;;8.87;;
7977;SDS011;4034;48.004;10.902;2023-02-28T09:51:05;12.03;;;10.77;;
7977;SDS011;4034;48.004;10.902;2023-02-28T09:53:36;12.17;;;10.40;;
7977;SDS011;4034;48.004;10.902;2023-02-28T09:56:05;13.53;;;10.77;;
7977;SDS011;4034;48.004;10.902;2023-02-28T09:58:49;15.00;;;11.53;;
7977;SDS011;4034;48.004;10.902;2023-02-28T10:01:24;12.07;;;10.20;;
7977;SDS011;4034;48.004;10.902;2023-02-28T10:04:00;14.60;;;11.77;;
7977;SDS011;4034;48.004;10.902;2023-02-28T10:06:30;11.30;;;10.10;;
7977;SDS011;4034;48.004;10.902;2023-02-28T10:09:11;9.73;;;7.87;;
7977;SDS011;4034;48.004;10.902;2023-02-28T10:11:38;13.53;;;11.60;;
7977;SDS011;4034;48.004;10.902;2023-02-28T10:14:15;13.37;;;10.80;;
7977;SDS011;4034;48.004;10.902;2023-02-28T10:16:45;12.53;;;10.63;;
7977;SDS011;4034;48.004;10.902;2023-02-28T10:19:24;13.43;;;11.97;;
7977;SDS011;4034;48.004;10.902;2023-02-28T10:21:57;13.37;;;10.80;;
7977;SDS011;4034;48.004;10.902;2023-02-28T10:27:16;13.90;;;10.97;;
7977;SDS011;4034;48.004;10.902;2023-02-28T10:29:44;13.27;;;11.10;;
7977;SDS011;4034;48.004;10.902;2023-02-28T10:32:11;12.93;;;11.17;;
7977;SDS011;4034;48.004;10.902;2023-02-28T10:34:39;12.87;;;11.07;;
7977;SDS011;4034;48.004;10.902;2023-02-28T10:37:06;13.70;;;12.30;;
7977;SDS011;4034;48.004;10.902;2023-02-28T10:39:45;15.30;;;12.57;;
7977;SDS011;4034;48.004;10.902;2023-02-28T10:42:18;13.40;;;11.87;;
7977;SDS011;4034;48.004;10.902;2023-02-28T10:44:45;14.23;;;10.73;;
7977;SDS011;4034;48.004;10.902;2023-02-28T10:47:14;15.10;;;12.50;;
7977;SDS011;4034;48.004;10.902;2023-02-28T10:49:47;15.87;;;12.50;;
7977;SDS011;4034;48.004;10.902;2023-02-28T10:52:14;16.53;;;13.00;;
7977;SDS011;4034;48.004;10.902;2023-02-28T10:55:13;14.13;;;12.13;;
7977;SDS011;4034;48.004;10.902;2023-02-28T10:57:39;14.13;;;9.87;;
7977;SDS011;4034;48.004;10.902;2023-02-28T11:00:12;12.30;;;11.00;;
7977;SDS011;4034;48.004;10.902;2023-02-28T11:02:39;12.37;;;9.60;;
7977;SDS011;4034;48.004;10.902;2023-02-28T11:07:56;14.87;;;12.70;;
7977;SDS011;4034;48.004;10.902;2023-02-28T11:10:24;12.63;;;10.93;;
7977;SDS011;4034;48.004;10.902;2023-02-28T11:12:54;14.00;;;11.93;;
7977;SDS011;4034;48.004;10.902;2023-02-28T11:17:53;16.10;;;11.67;;
7977;SDS011;4034;48.004;10.902;2023-02-28T11:20:23;12.87;;;11.53;;
7977;SDS011;4034;48.004;10.902;2023-02-28T11:22:50;13.07;;;11.67;;
7977;SDS011;4034;48.004;10.902;2023-02-28T11:27:51;13.60;;;11.67;;
7977;SDS011;4034;48.004;10.902;2023-02-28T11:32:53;16.13;;;12.47;;
7977;SDS011;4034;48.004;10.902;2023-02-28T11:35:33;11.50;;;10.13;;
7977;SDS011;4034;48.004;10.902;2023-02-28T11:38:02;15.03;;;12.23;;
7977;SDS011;4034;48.004;10.902;2023-02-28T11:40:30;17.00;;;13.90;;
7977;SDS011;4034;48.004;10.902;2023-02-28T11:43:08;12.70;;;11.40;;
7977;SDS011;4034;48.004;10.902;2023-02-28T11:51:30;14.40;;;11.13;;
7977;SDS011;4034;48.004;10.902;2023-02-28T11:56:53;14.73;;;12.13;;
7977;SDS011;4034;48.004;10.902;2023-02-28T12:04:44;13.77;;;11.30;;
7977;SDS011;4034;48.004;10.902;2023-02-28T12:07:36;12.77;;;10.97;;
7977;SDS011;4034;48.004;10.902;2023-02-28T12:10:11;12.93;;;10.63;;
7977;SDS011;4034;48.004;10.902;2023-02-28T12:27:49;14.20;;;12.00;;
7977;SDS011;4034;48.004;10.902;2023-02-28T12:32:48;12.40;;;11.20;;
7977;SDS011;4034;48.004;10.902;2023-02-28T12:35:18;15.13;;;12.63;;
7977;SDS011;4034;48.004;10.902;2023-02-28T12:38:02;14.60;;;12.47;;
7977;SDS011;4034;48.004;10.902;2023-02-28T12:40:38;12.33;;;10.67;;
7977;SDS011;4034;48.004;10.902;2023-02-28T12:43:07;11.63;;;10.53;;
7977;SDS011;4034;48.004;10.902;2023-02-28T12:45:39;13.87;;;9.73;;
7977;SDS011;4034;48.004;10.902;2023-02-28T12:48:08;14.03;;;10.93;;
7977;SDS011;4034;48.004;10.902;2023-02-28T12:50:35;15.80;;;11.40;;
7977;SDS011;4034;48.004;10.902;2023-02-28T12:53:17;11.87;;;9.53;;
7977;SDS011;4034;48.004;10.902;2023-02-28T12:55:56;12.57;;;11.27;;
7977;SDS011;4034;48.004;10.902;2023-02-28T12:58:36;12.03;;;10.70;;
7977;SDS011;4034;48.004;10.902;2023-02-28T13:08:41;11.87;;;10.43;;
7977;SDS011;4034;48.004;10.902;2023-02-28T13:11:23;12.70;;;10.30;;
7977;SDS011;4034;48.004;10.902;2023-02-28T13:13:56;12.50;;;10.90;;
7977;SDS011;4034;48.004;10.902;2023-02-28T13:16:22;12.87;;;10.90;;
7977;SDS011;4034;48.004;10.902;2023-02-28T13:18:48;12.10;;;10.83;;
7977;SDS011;4034;48.004;10.902;2023-02-28T13:29:27;13.27;;;11.40;;
7977;SDS011;4034;48.004;10.902;2023-02-28T13:34:36;12.53;;;11.17;;
7977;SDS011;4034;48.004;10.902;2023-02-28T13:42:23;11.33;;;10.23;;
7977;SDS011;4034;48.004;10.902;2023-02-28T13:52:21;11.50;;;10.30;;
7977;SDS011;4034;48.004;10.902;2023-02-28T13:57:29;10.17;;;9.17;;
7977;SDS011;4034;48.004;10.902;2023-02-28T14:00:09;10.33;;;9.33;;
7977;SDS011;4034;48.004;10.902;2023-02-28T14:02:48;9.87;;;8.93;;
7977;SDS011;4034;48.004;10.902;2023-02-28T14:05:19;10.30;;;9.30;;
7977;SDS011;4034;48.004;10.902;2023-02-28T14:07:57;10.33;;;9.37;;
7977;SDS011;4034;48.004;10.902;2023-02-28T14:13:11;9.87;;;8.97;;
7977;SDS011;4034;48.004;10.902;2023-02-28T14:20:53;10.40;;;9.33;;
7977;SDS011;4034;48.004;10.902;2023-02-28T14:26:01;9.93;;;8.67;;
7977;SDS011;4034;48.004;10.902;2023-02-28T14:28:44;11.67;;;10.53;;
7977;SDS011;4034;48.004;10.902;2023-02-28T14:31:18;10.67;;;9.53;;
7977;SDS011;4034;48.004;10.902;2023-02-28T14:36:32;10.53;;;9.63;;
7977;SDS011;4034;48.004;10.902;2023-02-28T14:39:10;10.13;;;9.23;;
7977;SDS011;4034;48.004;10.902;2023-02-28T14:41:38;12.93;;;9.47;;
7977;SDS011;4034;48.004;10.902;2023-02-28T14:44:21;11.53;;;10.43;;
7977;SDS011;4034;48.004;10.902;2023-02-28T14:46:54;11.83;;;10.63;;
7977;SDS011;4034;48.004;10.902;2023-02-28T14:49:23;11.83;;;9.87;;
7977;SDS011;4034;48.004;10.902;2023-02-28T14:52:01;12.17;;;10.57;;
7977;SDS011;4034;48.004;10.902;2023-02-28T14:54:27;11.17;;;9.97;;
7977;SDS011;4034;48.004;10.902;2023-02-28T14:56:54;11.07;;;9.93;;
7977;SDS011;4034;48.004;10.902;2023-02-28T14:59:28;10.07;;;9.17;;
7977;SDS011;4034;48.004;10.902;2023-02-28T15:02:16;11.77;;;10.57;;
7977;SDS011;4034;48.004;10.902;2023-02-28T15:04:42;10.73;;;9.73;;
7977;SDS011;4034;48.004;10.902;2023-02-28T15:07:18;12.97;;;11.50;;
7977;SDS011;4034;48.004;10.902;2023-02-28T15:09:44;12.83;;;11.50;;
7977;SDS011;4034;48.004;10.902;2023-02-28T15:12:13;13.70;;;10.07;;
7977;SDS011;4034;48.004;10.902;2023-02-28T15:14:39;13.40;;;10.37;;
7977;SDS011;4034;48.004;10.902;2023-02-28T15:17:08;12.90;;;10.80;;
7977;SDS011;4034;48.004;10.902;2023-02-28T15:19:39;11.33;;;10.23;;
7977;SDS011;4034;48.004;10.902;2023-02-28T15:22:08;13.50;;;11.23;;
7977;SDS011;4034;48.004;10.902;2023-02-28T15:24:47;11.80;;;10.60;;
7977;SDS011;4034;48.004;10.902;2023-02-28T15:27:16;11.37;;;10.20;;
7977;SDS011;4034;48.004;10.902;2023-02-28T15:29:46;13.10;;;10.47;;
7977;SDS011;4034;48.004;10.902;2023-02-28T15:34:49;12.50;;;11.30;;
7977;SDS011;4034;48.004;10.902;2023-02-28T15:37:28;14.20;;;11.80;;
7977;SDS011;4034;48.004;10.902;2023-02-28T15:40:06;13.53;;;11.10;;
7977;SDS011;4034;48.004;10.902;2023-02-28T15:42:33;13.57;;;10.53;;
7977;SDS011;4034;48.004;10.902;2023-02-28T15:44:59;14.47;;;12.33;;
7977;SDS011;4034;48.004;10.902;2023-02-28T15:47:26;12.70;;;11.40;;
7977;SDS011;4034;48.004;10.902;2023-02-28T15:49:53;12.80;;;11.57;;
7977;SDS011;4034;48.004;10.902;2023-02-28T15:52:31;14.23;;;11.13;;
7977;SDS011;4034;48.004;10.902;2023-02-28T15:54:59;14.10;;;12.20;;
7977;SDS011;4034;48.004;10.902;2023-02-28T15:57:33;13.67;;;10.40;;
7977;SDS011;4034;48.004;10.902;2023-02-28T16:00:02;14.50;;;11.27;;
7977;SDS011;4034;48.004;10.902;2023-02-28T16:02:36;14.20;;;11.57;;
7977;SDS011;4034;48.004;10.902;2023-02-28T16:07:31;15.73;;;12.03;;
7977;SDS011;4034;48.004;10.902;2023-02-28T16:09:58;14.07;;;12.57;;
7977;SDS011;4034;48.004;10.902;2023-02-28T16:12:26;17.23;;;12.83;;
7977;SDS011;4034;48.004;10.902;2023-02-28T16:14:52;22.50;;;13.67;;
7977;SDS011;4034;48.004;10.902;2023-02-28T16:17:20;14.50;;;11.60;;
7977;SDS011;4034;48.004;10.902;2023-02-28T16:19:47;15.70;;;12.63;;
7977;SDS011;4034;48.004;10.902;2023-02-28T16:22:13;14.30;;;12.60;;
7977;SDS011;4034;48.004;10.902;2023-02-28T16:24:39;16.27;;;11.80;;
7977;SDS011;4034;48.004;10.902;2023-02-28T16:27:06;18.17;;;12.80;;
7977;SDS011;4034;48.004;10.902;2023-02-28T16:32:05;22.73;;;13.73;;
7977;SDS011;4034;48.004;10.902;2023-02-28T16:34:31;16.57;;;12.73;;
7977;SDS011;4034;48.004;10.902;2023-02-28T16:36:57;17.83;;;13.27;;
7977;SDS011;4034;48.004;10.902;2023-02-28T16:39:24;16.77;;;13.43;;
7977;SDS011;4034;48.004;10.902;2023-02-28T16:41:50;13.70;;;12.30;;
7977;SDS011;4034;48.004;10.902;2023-02-28T16:44:23;18.00;;;13.43;;
7977;SDS011;4034;48.004;10.902;2023-02-28T16:46:51;19.80;;;13.93;;
7977;SDS011;4034;48.004;10.902;2023-02-28T16:49:17;16.83;;;12.57;;
7977;SDS011;4034;48.004;10.902;2023-02-28T16:51:44;15.37;;;12.47;;
7977;SDS011;4034;48.004;10.902;2023-02-28T16:54:10;14.73;;;12.17;;
7977;SDS011;4034;48.004;10.902;2023-02-28T16:56:36;18.90;;;13.63;;
7977;SDS011;4034;48.004;10.902;2023-02-28T16:59:04;18.47;;;13.57;;
7977;SDS011;4034;48.004;10.902;2023-02-28T17:01:30;19.03;;;11.47;;
7977;SDS011;4034;48.004;10.902;2023-02-28T17:03:56;13.90;;;12.07;;
7977;SDS011;4034;48.004;10.902;2023-02-28T17:06:24;20.20;;;13.40;;
7977;SDS011;4034;48.004;10.902;2023-02-28T17:08:51;17.00;;;13.77;;